sensor_id;sensor_type;location;lat;lon;timestamp;pressure;altitude;pressure_sealevel;temperature;humidity
11041;BME280;5573;49.592;8.662;2024-01-06T00:00:50;98711.22;;;5.35;81.74
11041;BME280;5573;49.592;8.662;2024-01-06T00:03:18;98712.81;;;5.36;81.53
11041;BME280;5573;49.592;8.662;2024-01-06T00:05:46;98712.44;;;5.26;82.14
11041;BME280;5573;49.592;8.662;2024-01-06T00:08:14;98718.72;;;5.38;81.42
11041;BME280;5573;49.592;8.662;2024-01-06T00:10:41;98717.09;;;5.37;81.43
11041;BME280;5573;49.592;8.662;2024-01-06T00:13:10;98723.19;;;5.31;81.45
11041;BME280;5573;49.592;8.662;2024-01-06T00:15:38;98718.94;;;5.50;81.25
11041;BME280;5573;49.592;8.662;2024-01-06T00:18:07;98727.03;;;5.48;81.51
11041;BME280;5573;49.592;8.662;2024-01-06T00:20:35;98721.56;;;5.43;81.40
11041;BME280;5573;49.592;8.662;2024-01-06T00:23:03;98714.06;;;5.33;81.94
11041;BME280;5573;49.592;8.662;2024-01-06T00:25:31;98721.16;;;5.33;81.49
11041;BME280;5573;49.592;8.662;2024-01-06T00:27:59;98721.16;;;5.33;81.88
11041;BME280;5573;49.592;8.662;2024-01-06T00:30:27;98723.19;;;5.31;81.42
11041;BME280;5573;49.592;8.662;2024-01-06T00:32:55;98716.06;;;5.25;82.62
11041;BME280;5573;49.592;8.662;2024-01-06T00:35:24;98724.00;;;5.05;82.94
11041;BME280;5573;49.592;8.662;2024-01-06T00:37:52;98731.72;;;5.07;82.87
11041;BME280;5573;49.592;8.662;2024-01-06T00:40:19;98731.94;;;5.12;82.92
11041;BME280;5573;49.592;8.662;2024-01-06T00:42:47;98729.47;;;5.04;83.72
11041;BME280;5573;49.592;8.662;2024-01-06T00:45:15;98728.84;;;4.82;84.27
11041;BME280;5573;49.592;8.662;2024-01-06T00:47:43;98737.91;;;4.47;86.06
11041;BME280;5573;49.592;8.662;2024-01-06T00:50:10;98735.09;;;4.14;87.69
11041;BME280;5573;49.592;8.662;2024-01-06T00:52:41;98740.38;;;4.14;88.36
11041;BME280;5573;49.592;8.662;2024-01-06T00:55:09;98733.31;;;4.21;88.78
11041;BME280;5573;49.592;8.662;2024-01-06T00:57:37;98736.72;;;4.08;88.83
11041;BME280;5573;49.592;8.662;2024-01-06T01:00:06;98733.09;;;4.16;88.15
11041;BME280;5573;49.592;8.662;2024-01-06T01:02:34;98734.59;;;3.90;89.12
11041;BME280;5573;49.592;8.662;2024-01-06T01:05:06;98723.25;;;3.90;89.48
11041;BME280;5573;49.592;8.662;2024-01-06T01:07:35;98742.41;;;4.12;88.72
11041;BME280;5573;49.592;8.662;2024-01-06T01:10:04;98746.41;;;4.01;89.70
11041;BME280;5573;49.592;8.662;2024-01-06T01:12:32;98735.44;;;3.98;90.40
11041;BME280;5573;49.592;8.662;2024-01-06T01:15:01;98720.75;;;4.16;88.69
11041;BME280;5573;49.592;8.662;2024-01-06T01:17:29;98705.28;;;4.13;88.32
11041;BME280;5573;49.592;8.662;2024-01-06T01:19:57;98745.34;;;4.43;88.62
11041;BME280;5573;49.592;8.662;2024-01-06T01:22:25;98698.66;;;4.24;87.14
11041;BME280;5573;49.592;8.662;2024-01-06T01:24:52;98760.44;;;4.56;86.95
11041;BME280;5573;49.592;8.662;2024-01-06T01:27:21;98754.72;;;4.52;87.75
11041;BME280;5573;49.592;8.662;2024-01-06T01:29:50;98758.84;;;4.61;87.94
11041;BME280;5573;49.592;8.662;2024-01-06T01:32:19;98772.22;;;4.60;87.76
11041;BME280;5573;49.592;8.662;2024-01-06T01:34:47;98769.56;;;4.60;88.14
11041;BME280;5573;49.592;8.662;2024-01-06T01:37:15;98769.31;;;4.48;87.92
11041;BME280;5573;49.592;8.662;2024-01-06T01:39:43;98770.56;;;4.52;87.72
11041;BME280;5573;49.592;8.662;2024-01-06T01:42:11;98769.31;;;4.42;88.22
11041;BME280;5573;49.592;8.662;2024-01-06T01:44:40;98773.16;;;4.39;88.07
11041;BME280;5573;49.592;8.662;2024-01-06T01:47:08;98774.09;;;4.25;89.09
11041;BME280;5573;49.592;8.662;2024-01-06T01:49:37;98782.00;;;4.25;90.04
11041;BME280;5573;49.592;8.662;2024-01-06T01:52:06;98789.31;;;4.29;89.93
11041;BME280;5573;49.592;8.662;2024-01-06T01:54:34;98783.69;;;4.39;89.70
11041;BME280;5573;49.592;8.662;2024-01-06T01:57:02;98791.16;;;4.35;89.39
11041;BME280;5573;49.592;8.662;2024-01-06T01:59:30;98789.59;;;4.41;89.45
11041;BME280;5573;49.592;8.662;2024-01-06T02:02:00;98788.53;;;4.35;90.05
11041;BME280;5573;49.592;8.662;2024-01-06T02:04:29;98779.44;;;4.45;89.66
11041;BME280;5573;49.592;8.662;2024-01-06T02:06:57;98787.94;;;4.40;89.56
11041;BME280;5573;49.592;8.662;2024-01-06T02:09:25;98795.28;;;4.45;88.68
11041;BME280;5573;49.592;8.662;2024-01-06T02:11:56;98773.78;;;4.48;88.40
11041;BME280;5573;49.592;8.662;2024-01-06T02:14:24;98792.06;;;4.49;88.70
11041;BME280;5573;49.592;8.662;2024-01-06T02:16:52;98787.38;;;4.51;88.20
11041;BME280;5573;49.592;8.662;2024-01-06T02:19:21;98780.72;;;4.55;88.20
11041;BME280;5573;49.592;8.662;2024-01-06T02:21:52;98781.09;;;4.52;88.35
11041;BME280;5573;49.592;8.662;2024-01-06T02:24:20;98775.00;;;4.52;87.31
11041;BME280;5573;49.592;8.662;2024-01-06T02:26:48;98778.03;;;4.42;87.32
11041;BME280;5573;49.592;8.662;2024-01-06T02:29:17;98783.09;;;4.44;86.63
11041;BME280;5573;49.592;8.662;2024-01-06T02:31:45;98787.53;;;4.36;87.11
11041;BME280;5573;49.592;8.662;2024-01-06T02:34:13;98785.53;;;4.38;88.08
11041;BME280;5573;49.592;8.662;2024-01-06T02:36:41;98788.75;;;4.40;88.37
11041;BME280;5573;49.592;8.662;2024-01-06T02:39:10;98798.50;;;4.40;87.62
11041;BME280;5573;49.592;8.662;2024-01-06T02:41:38;98795.09;;;4.46;87.15
11041;BME280;5573;49.592;8.662;2024-01-06T02:44:06;98805.44;;;4.54;86.16
11041;BME280;5573;49.592;8.662;2024-01-06T02:46:39;98803.84;;;4.53;87.04
11041;BME280;5573;49.592;8.662;2024-01-06T02:49:07;98803.28;;;4.64;86.06
11041;BME280;5573;49.592;8.662;2024-01-06T02:51:35;98807.97;;;4.69;86.25
11041;BME280;5573;49.592;8.662;2024-01-06T02:54:03;98806.34;;;4.74;85.34
11041;BME280;5573;49.592;8.662;2024-01-06T02:56:33;98808.34;;;4.66;86.49
11041;BME280;5573;49.592;8.662;2024-01-06T02:59:00;98809.16;;;4.73;85.79
11041;BME280;5573;49.592;8.662;2024-01-06T03:01:29;98815.44;;;4.65;86.72
11041;BME280;5573;49.592;8.662;2024-01-06T03:03:57;98816.50;;;4.77;84.84
11041;BME280;5573;49.592;8.662;2024-01-06T03:06:25;98812.44;;;4.81;85.05
11041;BME280;5573;49.592;8.662;2024-01-06T03:08:52;98819.94;;;4.78;85.95
11041;BME280;5573;49.592;8.662;2024-01-06T03:11:20;98822.78;;;4.76;85.37
11041;BME280;5573;49.592;8.662;2024-01-06T03:13:50;98821.97;;;4.76;85.77
11041;BME280;5573;49.592;8.662;2024-01-06T03:16:18;98828.50;;;4.86;85.04
11041;BME280;5573;49.592;8.662;2024-01-06T03:18:45;98822.59;;;4.84;85.13
11041;BME280;5573;49.592;8.662;2024-01-06T03:21:17;98820.00;;;4.91;85.05
11041;BME280;5573;49.592;8.662;2024-01-06T03:23:45;98822.25;;;5.01;84.66
11041;BME280;5573;49.592;8.662;2024-01-06T03:26:13;98824.91;;;5.01;84.88
11041;BME280;5573;49.592;8.662;2024-01-06T03:28:40;98827.72;;;4.93;85.99
11041;BME280;5573;49.592;8.662;2024-01-06T03:31:10;98825.06;;;4.93;86.27
11041;BME280;5573;49.592;8.662;2024-01-06T03:33:38;98829.53;;;4.92;85.13
11041;BME280;5573;49.592;8.662;2024-01-06T03:36:06;98828.34;;;4.95;85.13
11041;BME280;5573;49.592;8.662;2024-01-06T03:38:34;98831.16;;;4.93;85.37
11041;BME280;5573;49.592;8.662;2024-01-06T03:41:02;98827.50;;;4.87;86.33
11041;BME280;5573;49.592;8.662;2024-01-06T03:43:30;98831.75;;;4.88;85.97
11041;BME280;5573;49.592;8.662;2024-01-06T03:45:58;98831.56;;;4.83;85.86
11041;BME280;5573;49.592;8.662;2024-01-06T03:48:28;98827.03;;;4.77;86.38
11041;BME280;5573;49.592;8.662;2024-01-06T03:50:56;98834.38;;;4.88;85.60
11041;BME280;5573;49.592;8.662;2024-01-06T03:53:24;98837.84;;;4.89;85.53
11041;BME280;5573;49.592;8.662;2024-01-06T03:55:53;98839.25;;;4.92;85.44
11041;BME280;5573;49.592;8.662;2024-01-06T03:58:21;98825.88;;;4.86;86.02
11041;BME280;5573;49.592;8.662;2024-01-06T04:00:48;98825.47;;;4.83;86.75
11041;BME280;5573;49.592;8.662;2024-01-06T04:03:16;98830.56;;;4.98;85.58
11041;BME280;5573;49.592;8.662;2024-01-06T04:05:46;98833.22;;;5.04;85.54
11041;BME280;5573;49.592;8.662;2024-01-06T04:08:14;98835.03;;;5.04;85.40
11041;BME280;5573;49.592;8.662;2024-01-06T04:10:41;98837.28;;;5.07;85.27
11041;BME280;5573;49.592;8.662;2024-01-06T04:13:10;98839.31;;;5.05;85.51
11041;BME280;5573;49.592;8.662;2024-01-06T04:15:38;98838.09;;;5.01;85.59
11041;BME280;5573;49.592;8.662;2024-01-06T04:18:06;98833.22;;;4.98;86.68
11041;BME280;5573;49.592;8.662;2024-01-06T04:20:36;98834.81;;;4.92;85.51
11041;BME280;5573;49.592;8.662;2024-01-06T04:23:05;98837.84;;;4.96;86.19
11041;BME280;5573;49.592;8.662;2024-01-06T04:25:33;98842.72;;;4.85;86.05
11041;BME280;5573;49.592;8.662;2024-01-06T04:28:01;98848.22;;;4.91;85.43
11041;BME280;5573;49.592;8.662;2024-01-06T04:30:29;98843.78;;;4.98;85.22
11041;BME280;5573;49.592;8.662;2024-01-06T04:32:57;98832.00;;;5.00;85.21
11041;BME280;5573;49.592;8.662;2024-01-06T04:35:25;98841.31;;;4.96;85.63
11041;BME280;5573;49.592;8.662;2024-01-06T04:37:53;98844.97;;;4.95;85.04
11041;BME280;5573;49.592;8.662;2024-01-06T04:40:22;98842.38;;;5.02;84.14
11041;BME280;5573;49.592;8.662;2024-01-06T04:42:50;98831.34;;;4.85;84.69
11041;BME280;5573;49.592;8.662;2024-01-06T04:45:18;98771.63;;;4.64;84.90
11041;BME280;5573;49.592;8.662;2024-01-06T04:47:47;98839.53;;;5.10;84.40
11041;BME280;5573;49.592;8.662;2024-01-06T04:50:15;98833.88;;;5.13;84.25
11041;BME280;5573;49.592;8.662;2024-01-06T04:52:43;98832.22;;;5.05;83.71
11041;BME280;5573;49.592;8.662;2024-01-06T04:55:11;98834.41;;;4.95;84.27
11041;BME280;5573;49.592;8.662;2024-01-06T04:57:41;98840.06;;;4.85;85.10
11041;BME280;5573;49.592;8.662;2024-01-06T05:00:09;98846.19;;;4.93;84.70
11041;BME280;5573;49.592;8.662;2024-01-06T05:02:38;98842.94;;;4.91;84.76
11041;BME280;5573;49.592;8.662;2024-01-06T05:05:07;98845.78;;;4.96;83.99
11041;BME280;5573;49.592;8.662;2024-01-06T05:07:35;98839.25;;;4.92;84.97
11041;BME280;5573;49.592;8.662;2024-01-06T05:10:04;98849.03;;;4.91;84.83
11041;BME280;5573;49.592;8.662;2024-01-06T05:12:32;98853.09;;;5.00;84.17
11041;BME280;5573;49.592;8.662;2024-01-06T05:15:02;98853.69;;;4.89;85.20
11041;BME280;5573;49.592;8.662;2024-01-06T05:17:30;98858.78;;;4.97;85.32
11041;BME280;5573;49.592;8.662;2024-01-06T05:19:58;98858.13;;;4.88;85.32
11041;BME280;5573;49.592;8.662;2024-01-06T05:22:27;98861.00;;;4.94;85.16
11041;BME280;5573;49.592;8.662;2024-01-06T05:24:54;98860.59;;;4.97;84.97
11041;BME280;5573;49.592;8.662;2024-01-06T05:27:23;98854.91;;;4.86;85.50
11041;BME280;5573;49.592;8.662;2024-01-06T05:29:50;98856.91;;;4.84;85.53
11041;BME280;5573;49.592;8.662;2024-01-06T05:32:20;98866.84;;;4.82;86.28
11041;BME280;5573;49.592;8.662;2024-01-06T05:34:48;98866.00;;;4.75;87.20
11041;BME280;5573;49.592;8.662;2024-01-06T05:37:16;98868.66;;;4.75;87.71
11041;BME280;5573;49.592;8.662;2024-01-06T05:39:44;98858.13;;;4.82;87.39
11041;BME280;5573;49.592;8.662;2024-01-06T05:42:12;98847.38;;;4.83;86.97
11041;BME280;5573;49.592;8.662;2024-01-06T05:44:41;98856.72;;;4.86;86.74
11041;BME280;5573;49.592;8.662;2024-01-06T05:47:09;98868.50;;;4.90;86.18
11041;BME280;5573;49.592;8.662;2024-01-06T05:49:42;98868.84;;;4.80;87.01
11041;BME280;5573;49.592;8.662;2024-01-06T05:52:10;98870.91;;;4.78;87.17
11041;BME280;5573;49.592;8.662;2024-01-06T05:54:40;98884.31;;;4.83;87.39
11041;BME280;5573;49.592;8.662;2024-01-06T05:57:08;98882.28;;;4.85;87.06
11041;BME280;5573;49.592;8.662;2024-01-06T05:59:36;98876.00;;;4.86;88.01
11041;BME280;5573;49.592;8.662;2024-01-06T06:02:04;98885.00;;;4.99;86.69
11041;BME280;5573;49.592;8.662;2024-01-06T06:04:31;98880.69;;;4.91;87.88
11041;BME280;5573;49.592;8.662;2024-01-06T06:07:01;98880.28;;;4.87;87.50
11041;BME280;5573;49.592;8.662;2024-01-06T06:09:29;98881.34;;;5.06;85.70
11041;BME280;5573;49.592;8.662;2024-01-06T06:11:57;98893.50;;;5.01;85.90
11041;BME280;5573;49.592;8.662;2024-01-06T06:14:25;98894.06;;;4.89;87.20
11041;BME280;5573;49.592;8.662;2024-01-06T06:16:55;98895.72;;;4.91;87.72
11041;BME280;5573;49.592;8.662;2024-01-06T06:19:23;98898.19;;;4.99;87.55
11041;BME280;5573;49.592;8.662;2024-01-06T06:21:51;98897.31;;;4.85;88.06
11041;BME280;5573;49.592;8.662;2024-01-06T06:24:21;98901.75;;;4.84;87.80
11041;BME280;5573;49.592;8.662;2024-01-06T06:26:49;98914.34;;;4.82;88.07
11041;BME280;5573;49.592;8.662;2024-01-06T06:29:16;98917.38;;;4.79;88.60
11041;BME280;5573;49.592;8.662;2024-01-06T06:31:44;98913.09;;;4.78;88.87
11041;BME280;5573;49.592;8.662;2024-01-06T06:34:13;98913.53;;;4.82;88.38
11041;BME280;5573;49.592;8.662;2024-01-06T06:36:41;98918.44;;;4.92;88.09
11041;BME280;5573;49.592;8.662;2024-01-06T06:39:09;98927.81;;;5.01;87.60
11041;BME280;5573;49.592;8.662;2024-01-06T06:41:38;98922.50;;;4.87;88.36
11041;BME280;5573;49.592;8.662;2024-01-06T06:44:06;98918.63;;;4.83;88.13
11041;BME280;5573;49.592;8.662;2024-01-06T06:46:34;98933.00;;;4.81;88.56
11041;BME280;5573;49.592;8.662;2024-01-06T06:49:01;98935.09;;;4.92;87.60
11041;BME280;5573;49.592;8.662;2024-01-06T06:51:29;98939.72;;;4.83;89.05
11041;BME280;5573;49.592;8.662;2024-01-06T06:53:57;98940.75;;;4.89;88.58
11041;BME280;5573;49.592;8.662;2024-01-06T06:56:26;98938.75;;;4.91;87.76
11041;BME280;5573;49.592;8.662;2024-01-06T06:58:55;98951.19;;;5.04;88.09
11041;BME280;5573;49.592;8.662;2024-01-06T07:01:23;98953.22;;;5.02;87.21
11041;BME280;5573;49.592;8.662;2024-01-06T07:03:51;98956.41;;;4.91;87.52
11041;BME280;5573;49.592;8.662;2024-01-06T07:06:18;98961.44;;;4.85;89.02
11041;BME280;5573;49.592;8.662;2024-01-06T07:08:45;98966.88;;;4.77;90.16
11041;BME280;5573;49.592;8.662;2024-01-06T07:11:13;98954.94;;;4.81;90.01
11041;BME280;5573;49.592;8.662;2024-01-06T07:13:45;98970.41;;;4.91;89.50
11041;BME280;5573;49.592;8.662;2024-01-06T07:16:14;98973.41;;;4.81;90.22
11041;BME280;5573;49.592;8.662;2024-01-06T07:18:45;98974.88;;;4.91;88.86
11041;BME280;5573;49.592;8.662;2024-01-06T07:21:13;98981.06;;;5.11;87.77
11041;BME280;5573;49.592;8.662;2024-01-06T07:23:41;98983.41;;;4.93;88.36
11041;BME280;5573;49.592;8.662;2024-01-06T07:26:10;98979.09;;;4.85;88.76
11041;BME280;5573;49.592;8.662;2024-01-06T07:28:37;98984.59;;;4.83;88.92
11041;BME280;5573;49.592;8.662;2024-01-06T07:31:05;98987.41;;;4.82;88.33
11041;BME280;5573;49.592;8.662;2024-01-06T07:33:35;98987.00;;;4.85;89.03
11041;BME280;5573;49.592;8.662;2024-01-06T07:36:03;98985.38;;;4.84;89.69
11041;BME280;5573;49.592;8.662;2024-01-06T07:38:31;98992.50;;;4.83;88.98
11041;BME280;5573;49.592;8.662;2024-01-06T07:40:59;98999.59;;;4.83;89.43
11041;BME280;5573;49.592;8.662;2024-01-06T07:43:27;99002.03;;;4.84;89.53
11041;BME280;5573;49.592;8.662;2024-01-06T07:45:55;99013.28;;;5.00;88.14
11041;BME280;5573;49.592;8.662;2024-01-06T07:48:23;99013.44;;;4.92;88.78
11041;BME280;5573;49.592;8.662;2024-01-06T07:50:53;99010.56;;;4.86;88.78
11041;BME280;5573;49.592;8.662;2024-01-06T07:53:20;99015.03;;;4.86;88.51
11041;BME280;5573;49.592;8.662;2024-01-06T07:55:48;99021.34;;;4.92;88.92
11041;BME280;5573;49.592;8.662;2024-01-06T07:58:16;99026.84;;;4.90;88.64
11041;BME280;5573;49.592;8.662;2024-01-06T08:00:44;99023.41;;;4.96;89.08
11041;BME280;5573;49.592;8.662;2024-01-06T08:03:12;99028.16;;;5.07;87.85
11041;BME280;5573;49.592;8.662;2024-01-06T08:05:40;99027.28;;;5.00;87.77
11041;BME280;5573;49.592;8.662;2024-01-06T08:08:09;99032.44;;;5.08;87.75
11041;BME280;5573;49.592;8.662;2024-01-06T08:10:39;99034.63;;;5.05;87.59
11041;BME280;5573;49.592;8.662;2024-01-06T08:13:07;99035.25;;;5.07;87.86
11041;BME280;5573;49.592;8.662;2024-01-06T08:15:35;99031.00;;;5.06;87.77
11041;BME280;5573;49.592;8.662;2024-01-06T08:18:03;99040.34;;;5.08;88.22
11041;BME280;5573;49.592;8.662;2024-01-06T08:20:31;99044.81;;;5.08;87.75
11041;BME280;5573;49.592;8.662;2024-01-06T08:22:59;99040.16;;;5.10;88.79
11041;BME280;5573;49.592;8.662;2024-01-06T08:25:28;99040.75;;;5.05;88.45
11041;BME280;5573;49.592;8.662;2024-01-06T08:27:56;99043.41;;;5.12;88.67
11041;BME280;5573;49.592;8.662;2024-01-06T08:30:24;99048.09;;;5.10;87.91
11041;BME280;5573;49.592;8.662;2024-01-06T08:32:52;99052.28;;;5.04;88.32
11041;BME280;5573;49.592;8.662;2024-01-06T08:35:20;99049.69;;;5.11;88.08
11041;BME280;5573;49.592;8.662;2024-01-06T08:37:48;99051.28;;;5.05;88.97
11041;BME280;5573;49.592;8.662;2024-01-06T08:40:17;99063.03;;;5.03;88.91
11041;BME280;5573;49.592;8.662;2024-01-06T08:42:46;99068.13;;;5.04;89.06
11041;BME280;5573;49.592;8.662;2024-01-06T08:45:14;99057.03;;;5.15;88.03
11041;BME280;5573;49.592;8.662;2024-01-06T08:47:42;99067.31;;;5.04;88.24
11041;BME280;5573;49.592;8.662;2024-01-06T08:50:10;99072.59;;;5.04;89.25
11041;BME280;5573;49.592;8.662;2024-01-06T08:52:37;99067.13;;;5.05;88.65
11041;BME280;5573;49.592;8.662;2024-01-06T08:55:06;99068.97;;;5.11;89.77
11041;BME280;5573;49.592;8.662;2024-01-06T08:57:34;99063.94;;;5.16;89.01
11041;BME280;5573;49.592;8.662;2024-01-06T09:00:04;99072.69;;;5.17;89.35
11041;BME280;5573;49.592;8.662;2024-01-06T09:02:32;99081.78;;;5.14;89.46
11041;BME280;5573;49.592;8.662;2024-01-06T09:05:00;99086.94;;;5.22;88.98
11041;BME280;5573;49.592;8.662;2024-01-06T09:07:28;99090.41;;;5.29;88.19
11041;BME280;5573;49.592;8.662;2024-01-06T09:09:56;99044.94;;;5.00;89.05
11041;BME280;5573;49.592;8.662;2024-01-06T09:12:24;99090.03;;;5.32;88.66
11041;BME280;5573;49.592;8.662;2024-01-06T09:14:51;99084.72;;;5.26;88.62
11041;BME280;5573;49.592;8.662;2024-01-06T09:17:20;99062.13;;;5.17;88.64
11041;BME280;5573;49.592;8.662;2024-01-06T09:19:49;99086.53;;;5.25;89.13
11041;BME280;5573;49.592;8.662;2024-01-06T09:22:17;99096.91;;;5.27;89.01
11041;BME280;5573;49.592;8.662;2024-01-06T09:24:44;99097.91;;;5.26;89.41
11041;BME280;5573;49.592;8.662;2024-01-06T09:27:12;99105.06;;;5.32;88.75
11041;BME280;5573;49.592;8.662;2024-01-06T09:29:41;99102.78;;;5.29;89.92
11041;BME280;5573;49.592;8.662;2024-01-06T09:32:09;99106.25;;;5.29;89.86
11041;BME280;5573;49.592;8.662;2024-01-06T09:34:38;99106.75;;;5.40;88.97
11041;BME280;5573;49.592;8.662;2024-01-06T09:37:07;99100.66;;;5.39;89.25
11041;BME280;5573;49.592;8.662;2024-01-06T09:39:34;99107.53;;;5.40;89.48
11041;BME280;5573;49.592;8.662;2024-01-06T09:42:03;99107.63;;;5.53;87.96
11041;BME280;5573;49.592;8.662;2024-01-06T09:44:30;99108.34;;;5.41;88.77
11041;BME280;5573;49.592;8.662;2024-01-06T09:46:58;99115.44;;;5.33;89.01
11041;BME280;5573;49.592;8.662;2024-01-06T09:49:28;99109.38;;;5.40;88.78
11041;BME280;5573;49.592;8.662;2024-01-06T09:51:59;99123.78;;;5.37;89.57
11041;BME280;5573;49.592;8.662;2024-01-06T09:54:30;99125.69;;;5.50;87.99
11041;BME280;5573;49.592;8.662;2024-01-06T09:57:02;99128.03;;;5.31;89.08
11041;BME280;5573;49.592;8.662;2024-01-06T09:59:31;99125.00;;;5.34;89.25
11041;BME280;5573;49.592;8.662;2024-01-06T10:02:03;99129.06;;;5.37;89.20
11041;BME280;5573;49.592;8.662;2024-01-06T10:04:31;99112.44;;;5.43;89.48
11041;BME280;5573;49.592;8.662;2024-01-06T10:07:01;99129.47;;;5.41;88.74
11041;BME280;5573;49.592;8.662;2024-01-06T10:09:29;99128.88;;;5.38;89.54
11041;BME280;5573;49.592;8.662;2024-01-06T10:11:57;99131.78;;;5.50;89.02
11041;BME280;5573;49.592;8.662;2024-01-06T10:14:26;99137.50;;;5.54;89.77
11041;BME280;5573;49.592;8.662;2024-01-06T10:16:54;99134.53;;;5.70;88.23
11041;BME280;5573;49.592;8.662;2024-01-06T10:19:23;99127.66;;;5.75;89.14
11041;BME280;5573;49.592;8.662;2024-01-06T10:21:51;99121.97;;;5.85;89.30
11041;BME280;5573;49.592;8.662;2024-01-06T10:24:20;99125.31;;;5.94;88.68
11041;BME280;5573;49.592;8.662;2024-01-06T10:26:48;99125.72;;;5.91;87.95
11041;BME280;5573;49.592;8.662;2024-01-06T10:29:16;99119.44;;;5.98;88.29
11041;BME280;5573;49.592;8.662;2024-01-06T10:31:44;99116.31;;;5.88;88.14
11041;BME280;5573;49.592;8.662;2024-01-06T10:34:18;99118.31;;;5.79;88.47
11041;BME280;5573;49.592;8.662;2024-01-06T10:36:46;99090.16;;;5.59;88.68
11041;BME280;5573;49.592;8.662;2024-01-06T10:39:14;99112.22;;;5.79;89.13
11041;BME280;5573;49.592;8.662;2024-01-06T10:41:45;99108.63;;;5.87;88.85
11041;BME280;5573;49.592;8.662;2024-01-06T10:44:14;99109.81;;;5.84;88.52
11041;BME280;5573;49.592;8.662;2024-01-06T10:46:44;99113.22;;;5.84;88.92
11041;BME280;5573;49.592;8.662;2024-01-06T10:49:12;99115.56;;;6.01;88.06
11041;BME280;5573;49.592;8.662;2024-01-06T10:51:40;99116.41;;;6.01;87.90
11041;BME280;5573;49.592;8.662;2024-01-06T10:54:08;99089.00;;;5.74;88.12
11041;BME280;5573;49.592;8.662;2024-01-06T10:56:38;99119.63;;;5.97;88.60
11041;BME280;5573;49.592;8.662;2024-01-06T10:59:08;99119.69;;;6.10;88.77
11041;BME280;5573;49.592;8.662;2024-01-06T11:01:36;99118.47;;;6.12;88.64
11041;BME280;5573;49.592;8.662;2024-01-06T11:04:05;99113.91;;;5.93;88.71
11041;BME280;5573;49.592;8.662;2024-01-06T11:06:34;99121.25;;;5.91;89.58
11041;BME280;5573;49.592;8.662;2024-01-06T11:09:08;99118.63;;;5.98;88.28
11041;BME280;5573;49.592;8.662;2024-01-06T11:11:37;99112.31;;;5.99;88.06
11041;BME280;5573;49.592;8.662;2024-01-06T11:14:22;99108.28;;;6.09;87.70
11041;BME280;5573;49.592;8.662;2024-01-06T11:16:51;99118.63;;;5.98;88.79
11041;BME280;5573;49.592;8.662;2024-01-06T11:19:42;99115.16;;;5.97;89.49
11041;BME280;5573;49.592;8.662;2024-01-06T11:22:20;99106.78;;;5.87;89.97
11041;BME280;5573;49.592;8.662;2024-01-06T11:24:49;99109.69;;;6.05;89.76
11041;BME280;5573;49.592;8.662;2024-01-06T11:27:18;99105.81;;;6.01;89.28
11041;BME280;5573;49.592;8.662;2024-01-06T11:29:48;99086.50;;;6.01;88.45
11041;BME280;5573;49.592;8.662;2024-01-06T11:32:26;99100.53;;;6.01;89.34
11041;BME280;5573;49.592;8.662;2024-01-06T11:34:55;99108.06;;;6.04;88.86
11041;BME280;5573;49.592;8.662;2024-01-06T11:37:27;99105.84;;;6.08;88.58
11041;BME280;5573;49.592;8.662;2024-01-06T11:40:04;99098.72;;;6.02;88.51
11041;BME280;5573;49.592;8.662;2024-01-06T11:42:32;99100.53;;;6.01;89.17
11041;BME280;5573;49.592;8.662;2024-01-06T11:45:03;99098.56;;;6.23;88.06
11041;BME280;5573;49.592;8.662;2024-01-06T11:47:33;99109.13;;;6.23;88.37
11041;BME280;5573;49.592;8.662;2024-01-06T11:50:02;99100.38;;;6.16;88.35
11041;BME280;5573;49.592;8.662;2024-01-06T11:52:31;99102.59;;;6.12;89.58
11041;BME280;5573;49.592;8.662;2024-01-06T11:55:00;99109.13;;;6.16;88.90
11041;BME280;5573;49.592;8.662;2024-01-06T11:57:29;99099.34;;;6.17;89.26
11041;BME280;5573;49.592;8.662;2024-01-06T11:59:57;99101.41;;;6.21;88.77
11041;BME280;5573;49.592;8.662;2024-01-06T12:02:26;99110.38;;;6.27;88.79
11041;BME280;5573;49.592;8.662;2024-01-06T12:04:54;99108.16;;;6.44;87.79
11041;BME280;5573;49.592;8.662;2024-01-06T12:07:22;99106.13;;;6.52;87.04
11041;BME280;5573;49.592;8.662;2024-01-06T12:09:50;99106.91;;;6.33;87.61
11041;BME280;5573;49.592;8.662;2024-01-06T12:12:19;99101.19;;;6.23;88.69
11041;BME280;5573;49.592;8.662;2024-01-06T12:14:47;99101.78;;;6.18;89.86
11041;BME280;5573;49.592;8.662;2024-01-06T12:17:15;99095.91;;;6.23;88.92
11041;BME280;5573;49.592;8.662;2024-01-06T12:19:44;99095.13;;;6.36;88.93
11041;BME280;5573;49.592;8.662;2024-01-06T12:22:14;99101.41;;;6.28;89.04
11041;BME280;5573;49.592;8.662;2024-01-06T12:24:42;99094.72;;;6.32;88.53
11041;BME280;5573;49.592;8.662;2024-01-06T12:27:11;99067.03;;;6.21;88.91
11041;BME280;5573;49.592;8.662;2024-01-06T12:29:40;99065.56;;;6.12;88.88
11041;BME280;5573;49.592;8.662;2024-01-06T12:32:09;99091.66;;;6.35;88.23
11041;BME280;5573;49.592;8.662;2024-01-06T12:34:37;99092.44;;;6.16;88.89
11041;BME280;5573;49.592;8.662;2024-01-06T12:37:07;99090.63;;;6.23;88.82
11041;BME280;5573;49.592;8.662;2024-01-06T12:39:35;99094.91;;;6.37;88.55
11041;BME280;5573;49.592;8.662;2024-01-06T12:42:03;99091.84;;;6.20;88.69
11041;BME280;5573;49.592;8.662;2024-01-06T12:44:31;99088.78;;;6.17;89.28
11041;BME280;5573;49.592;8.662;2024-01-06T12:47:03;99094.72;;;6.32;88.35
11041;BME280;5573;49.592;8.662;2024-01-06T12:49:32;99095.72;;;6.24;89.16
11041;BME280;5573;49.592;8.662;2024-01-06T12:52:06;99096.72;;;6.23;89.63
11041;BME280;5573;49.592;8.662;2024-01-06T12:54:34;99097.97;;;6.34;88.73
11041;BME280;5573;49.592;8.662;2024-01-06T12:57:02;99096.72;;;6.30;89.04
11041;BME280;5573;49.592;8.662;2024-01-06T12:59:30;99099.78;;;6.33;88.60
11041;BME280;5573;49.592;8.662;2024-01-06T13:01:58;99102.44;;;6.27;88.62
11041;BME280;5573;49.592;8.662;2024-01-06T13:04:26;99104.84;;;6.22;89.37
11041;BME280;5573;49.592;8.662;2024-01-06T13:06:54;99107.88;;;6.12;90.17
11041;BME280;5573;49.592;8.662;2024-01-06T13:09:27;99109.28;;;6.08;89.60
11041;BME280;5573;49.592;8.662;2024-01-06T13:11:56;99111.53;;;6.11;90.34
11041;BME280;5573;49.592;8.662;2024-01-06T13:14:26;99109.53;;;6.20;89.47
11041;BME280;5573;49.592;8.662;2024-01-06T13:16:55;99110.53;;;6.12;89.68
11041;BME280;5573;49.592;8.662;2024-01-06T13:19:23;99115.22;;;6.17;89.95
11041;BME280;5573;49.592;8.662;2024-01-06T13:21:51;99111.53;;;6.11;90.38
11041;BME280;5573;49.592;8.662;2024-01-06T13:24:19;99122.69;;;6.07;89.88
11041;BME280;5573;49.592;8.662;2024-01-06T13:26:48;99116.84;;;6.18;88.96
11041;BME280;5573;49.592;8.662;2024-01-06T13:29:16;99116.06;;;6.24;89.29